sensor_id;sensor_type;location;lat;lon;timestamp;pressure;altitude;pressure_sealevel;temperature;humidity
12101;BME280;6113;42.678;23.334;2022-09-02T00:00:40;94473.94;;;23.59;83.53
12101;BME280;6113;42.678;23.334;2022-09-02T00:03:07;94476.00;;;23.59;83.48
12101;BME280;6113;42.678;23.334;2022-09-02T00:05:34;94469.31;;;23.62;83.75
12101;BME280;6113;42.678;23.334;2022-09-02T00:08:03;94476.53;;;23.57;84.05
12101;BME280;6113;42.678;23.334;2022-09-02T00:10:30;94432.88;;;23.30;84.25
12101;BME280;6113;42.678;23.334;2022-09-02T00:12:57;94465.97;;;23.56;84.47
12101;BME280;6113;42.678;23.334;2022-09-02T00:15:24;94465.03;;;23.53;84.84
12101;BME280;6113;42.678;23.334;2022-09-02T00:17:51;94468.53;;;23.54;84.80
12101;BME280;6113;42.678;23.334;2022-09-02T00:20:18;94472.81;;;23.55;84.33
12101;BME280;6113;42.678;23.334;2022-09-02T00:22:46;94466.69;;;23.56;84.50
12101;BME280;6113;42.678;23.334;2022-09-02T00:25:14;94477.28;;;23.58;84.43
12101;BME280;6113;42.678;23.334;2022-09-02T00:27:41;94460.19;;;23.46;84.25
12101;BME280;6113;42.678;23.334;2022-09-02T00:30:09;94486.00;;;23.62;84.13
12101;BME280;6113;42.678;23.334;2022-09-02T00:32:36;94486.19;;;23.64;84.09
12101;BME280;6113;42.678;23.334;2022-09-02T00:35:04;94488.19;;;23.56;84.24
12101;BME280;6113;42.678;23.334;2022-09-02T00:37:31;94499.31;;;23.56;84.74
12101;BME280;6113;42.678;23.334;2022-09-02T00:39:57;94500.97;;;23.51;85.10
12101;BME280;6113;42.678;23.334;2022-09-02T00:42:26;94499.84;;;23.47;84.78
12101;BME280;6113;42.678;23.334;2022-09-02T00:44:53;94496.31;;;23.46;84.78
12101;BME280;6113;42.678;23.334;2022-09-02T00:47:20;94498.16;;;23.44;84.72
12101;BME280;6113;42.678;23.334;2022-09-02T00:49:49;94497.59;;;23.45;84.53
12101;BME280;6113;42.678;23.334;2022-09-02T00:52:19;94499.97;;;23.41;84.81
12101;BME280;6113;42.678;23.334;2022-09-02T00:54:51;94499.44;;;23.43;85.28
12101;BME280;6113;42.678;23.334;2022-09-02T00:57:21;94478.78;;;23.23;85.97
12101;BME280;6113;42.678;23.334;2022-09-02T00:59:56;94501.63;;;23.37;87.33
12101;BME280;6113;42.678;23.334;2022-09-02T01:02:25;94499.19;;;23.33;87.63
12101;BME280;6113;42.678;23.334;2022-09-02T01:04:53;94485.19;;;23.11;87.40
12101;BME280;6113;42.678;23.334;2022-09-02T01:07:21;94512.38;;;23.33;87.71
12101;BME280;6113;42.678;23.334;2022-09-02T01:09:48;94502.16;;;23.28;87.04
12101;BME280;6113;42.678;23.334;2022-09-02T01:12:15;94498.41;;;23.25;85.88
12101;BME280;6113;42.678;23.334;2022-09-02T01:14:42;94505.47;;;23.26;86.33
12101;BME280;6113;42.678;23.334;2022-09-02T01:17:11;94499.38;;;23.28;86.32
12101;BME280;6113;42.678;23.334;2022-09-02T01:19:43;94496.03;;;23.29;86.86
12101;BME280;6113;42.678;23.334;2022-09-02T01:22:18;94504.22;;;23.35;85.70
12101;BME280;6113;42.678;23.334;2022-09-02T01:24:45;94509.38;;;23.31;83.78
12101;BME280;6113;42.678;23.334;2022-09-02T01:27:14;94487.25;;;22.90;83.94
12101;BME280;6113;42.678;23.334;2022-09-02T01:29:42;94511.19;;;22.73;86.03
12101;BME280;6113;42.678;23.334;2022-09-02T01:32:11;94505.25;;;22.69;86.96
12101;BME280;6113;42.678;23.334;2022-09-02T01:34:38;94509.53;;;22.49;89.37
12101;BME280;6113;42.678;23.334;2022-09-02T01:37:06;94501.25;;;22.57;89.33
12101;BME280;6113;42.678;23.334;2022-09-02T01:39:34;94502.41;;;22.61;89.21
12101;BME280;6113;42.678;23.334;2022-09-02T01:42:01;94455.84;;;22.47;88.94
12101;BME280;6113;42.678;23.334;2022-09-02T01:44:28;94483.84;;;22.77;88.80
12101;BME280;6113;42.678;23.334;2022-09-02T01:46:55;94458.66;;;22.75;87.52
12101;BME280;6113;42.678;23.334;2022-09-02T01:49:22;94455.19;;;22.82;86.16
12101;BME280;6113;42.678;23.334;2022-09-02T01:51:53;94454.72;;;22.98;83.53
12101;BME280;6113;42.678;23.334;2022-09-02T01:54:20;94451.75;;;22.96;83.09
12101;BME280;6113;42.678;23.334;2022-09-02T01:56:48;94457.31;;;22.96;80.82
12101;BME280;6113;42.678;23.334;2022-09-02T01:59:16;94442.16;;;22.97;79.15
12101;BME280;6113;42.678;23.334;2022-09-02T02:01:43;94446.38;;;22.98;79.15
12101;BME280;6113;42.678;23.334;2022-09-02T02:04:10;94442.53;;;23.01;79.19
12101;BME280;6113;42.678;23.334;2022-09-02T02:06:39;94438.88;;;23.06;78.47
12101;BME280;6113;42.678;23.334;2022-09-02T02:09:05;94440.56;;;23.09;78.07
12101;BME280;6113;42.678;23.334;2022-09-02T02:11:32;94440.00;;;23.10;78.08
12101;BME280;6113;42.678;23.334;2022-09-02T02:14:01;94449.97;;;23.06;78.33
12101;BME280;6113;42.678;23.334;2022-09-02T02:16:28;94435.56;;;23.07;78.11
12101;BME280;6113;42.678;23.334;2022-09-02T02:18:55;94409.69;;;22.92;78.26
12101;BME280;6113;42.678;23.334;2022-09-02T02:21:22;94446.53;;;23.13;78.84
12101;BME280;6113;42.678;23.334;2022-09-02T02:23:49;94451.31;;;23.12;79.20
12101;BME280;6113;42.678;23.334;2022-09-02T02:26:16;94448.69;;;23.07;79.47
12101;BME280;6113;42.678;23.334;2022-09-02T02:28:43;94447.19;;;23.06;79.95
12101;BME280;6113;42.678;23.334;2022-09-02T02:31:11;94434.69;;;22.92;80.38
12101;BME280;6113;42.678;23.334;2022-09-02T02:33:38;94455.84;;;23.02;80.12
12101;BME280;6113;42.678;23.334;2022-09-02T02:36:06;94464.41;;;23.04;79.84
12101;BME280;6113;42.678;23.334;2022-09-02T02:38:36;94467.19;;;23.04;79.69
12101;BME280;6113;42.678;23.334;2022-09-02T02:41:03;94462.56;;;23.07;79.57
12101;BME280;6113;42.678;23.334;2022-09-02T02:43:31;94448.78;;;22.94;79.64
12101;BME280;6113;42.678;23.334;2022-09-02T02:45:58;94449.47;;;22.87;80.36
12101;BME280;6113;42.678;23.334;2022-09-02T02:48:26;94460.63;;;22.95;80.73
12101;BME280;6113;42.678;23.334;2022-09-02T02:50:53;94449.41;;;22.80;81.22
12101;BME280;6113;42.678;23.334;2022-09-02T02:53:20;94468.00;;;22.92;81.69
12101;BME280;6113;42.678;23.334;2022-09-02T02:55:47;94433.44;;;22.65;82.19
12101;BME280;6113;42.678;23.334;2022-09-02T02:58:14;94464.66;;;22.86;82.74
12101;BME280;6113;42.678;23.334;2022-09-02T03:00:40;94458.38;;;22.86;83.46
12101;BME280;6113;42.678;23.334;2022-09-02T03:03:09;94458.31;;;22.78;84.72
12101;BME280;6113;42.678;23.334;2022-09-02T03:05:39;94447.09;;;22.63;84.97
12101;BME280;6113;42.678;23.334;2022-09-02T03:08:07;94472.38;;;22.80;85.68
12101;BME280;6113;42.678;23.334;2022-09-02T03:10:34;94476.44;;;22.79;86.05
12101;BME280;6113;42.678;23.334;2022-09-02T03:13:02;94474.59;;;22.82;85.53
12101;BME280;6113;42.678;23.334;2022-09-02T03:15:29;94457.28;;;22.68;85.25
12101;BME280;6113;42.678;23.334;2022-09-02T03:17:56;94475.53;;;22.84;85.12
12101;BME280;6113;42.678;23.334;2022-09-02T03:20:23;94476.09;;;22.83;86.24
12101;BME280;6113;42.678;23.334;2022-09-02T03:22:54;94461.28;;;22.80;86.17
12101;BME280;6113;42.678;23.334;2022-09-02T03:25:22;94462.38;;;22.77;86.61
12101;BME280;6113;42.678;23.334;2022-09-02T03:27:49;94447.78;;;22.56;87.46
12101;BME280;6113;42.678;23.334;2022-09-02T03:30:19;94449.28;;;22.57;86.90
12101;BME280;6113;42.678;23.334;2022-09-02T03:32:47;94454.28;;;22.59;87.75
12101;BME280;6113;42.678;23.334;2022-09-02T03:35:17;94439.81;;;22.53;87.27
12101;BME280;6113;42.678;23.334;2022-09-02T03:37:45;94465.25;;;22.64;87.38
12101;BME280;6113;42.678;23.334;2022-09-02T03:40:16;94468.59;;;22.70;87.50
12101;BME280;6113;42.678;23.334;2022-09-02T03:42:43;94477.50;;;22.69;87.59
12101;BME280;6113;42.678;23.334;2022-09-02T03:45:11;94464.44;;;22.56;87.42
12101;BME280;6113;42.678;23.334;2022-09-02T03:47:39;94456.25;;;22.51;87.12
12101;BME280;6113;42.678;23.334;2022-09-02T03:50:10;94490.53;;;22.81;86.67
12101;BME280;6113;42.678;23.334;2022-09-02T03:52:37;94487.56;;;22.79;86.82
12101;BME280;6113;42.678;23.334;2022-09-02T03:55:05;94498.66;;;22.79;86.64
12101;BME280;6113;42.678;23.334;2022-09-02T03:57:34;94500.84;;;22.73;86.77
12101;BME280;6113;42.678;23.334;2022-09-02T04:00:01;94492.19;;;22.56;87.05
12101;BME280;6113;42.678;23.334;2022-09-02T04:02:28;94517.03;;;22.62;87.55
12101;BME280;6113;42.678;23.334;2022-09-02T04:04:54;94506.25;;;22.58;88.05
12101;BME280;6113;42.678;23.334;2022-09-02T04:07:21;94513.63;;;22.56;88.22
12101;BME280;6113;42.678;23.334;2022-09-02T04:09:48;94515.06;;;22.49;89.20
12101;BME280;6113;42.678;23.334;2022-09-02T04:12:15;94522.03;;;22.43;89.56
12101;BME280;6113;42.678;23.334;2022-09-02T04:14:43;94516.50;;;22.43;89.74
12101;BME280;6113;42.678;23.334;2022-09-02T04:17:10;94524.59;;;22.41;89.77
12101;BME280;6113;42.678;23.334;2022-09-02T04:19:37;94529.41;;;22.40;89.89
12101;BME280;6113;42.678;23.334;2022-09-02T04:22:05;94529.00;;;22.36;90.38
12101;BME280;6113;42.678;23.334;2022-09-02T04:24:32;94534.34;;;22.34;91.06
12101;BME280;6113;42.678;23.334;2022-09-02T04:26:59;94527.84;;;22.32;91.42
12101;BME280;6113;42.678;23.334;2022-09-02T04:29:27;94529.63;;;22.29;92.10
12101;BME280;6113;42.678;23.334;2022-09-02T04:31:55;94529.63;;;22.29;92.18
12101;BME280;6113;42.678;23.334;2022-09-02T04:34:22;94530.91;;;22.28;92.23
12101;BME280;6113;42.678;23.334;2022-09-02T04:36:48;94535.19;;;22.29;92.88
12101;BME280;6113;42.678;23.334;2022-09-02T04:39:17;94547.25;;;22.32;92.54
12101;BME280;6113;42.678;23.334;2022-09-02T04:41:44;94541.38;;;22.35;91.79
12101;BME280;6113;42.678;23.334;2022-09-02T04:44:10;94540.84;;;22.37;91.42
12101;BME280;6113;42.678;23.334;2022-09-02T04:46:37;94520.50;;;22.21;91.11
12101;BME280;6113;42.678;23.334;2022-09-02T04:49:05;94539.84;;;22.47;90.47
12101;BME280;6113;42.678;23.334;2022-09-02T04:51:33;94545.78;;;22.51;90.14
12101;BME280;6113;42.678;23.334;2022-09-02T04:54:00;94543.44;;;22.55;89.71
12101;BME280;6113;42.678;23.334;2022-09-02T04:56:28;94551.63;;;22.61;89.40
12101;BME280;6113;42.678;23.334;2022-09-02T04:58:56;94548.63;;;22.59;89.39
12101;BME280;6113;42.678;23.334;2022-09-02T05:01:25;94526.44;;;22.38;89.31
12101;BME280;6113;42.678;23.334;2022-09-02T05:03:52;94567.97;;;22.51;89.60
12101;BME280;6113;42.678;23.334;2022-09-02T05:06:23;94553.38;;;22.51;89.95
12101;BME280;6113;42.678;23.334;2022-09-02T05:08:51;94549.09;;;22.50;89.75
12101;BME280;6113;42.678;23.334;2022-09-02T05:11:20;94556.69;;;22.49;89.73
12101;BME280;6113;42.678;23.334;2022-09-02T05:13:49;94551.66;;;22.48;89.89
12101;BME280;6113;42.678;23.334;2022-09-02T05:16:18;94540.09;;;22.36;89.86
12101;BME280;6113;42.678;23.334;2022-09-02T05:18:45;94551.66;;;22.48;90.27
12101;BME280;6113;42.678;23.334;2022-09-02T05:21:12;94521.31;;;22.29;90.06
12101;BME280;6113;42.678;23.334;2022-09-02T05:23:41;94546.41;;;22.37;90.04
12101;BME280;6113;42.678;23.334;2022-09-02T05:26:09;94562.44;;;22.51;89.86
12101;BME280;6113;42.678;23.334;2022-09-02T05:28:38;94560.97;;;22.50;90.05
12101;BME280;6113;42.678;23.334;2022-09-02T05:31:08;94544.22;;;22.43;90.37
12101;BME280;6113;42.678;23.334;2022-09-02T05:33:35;94563.91;;;22.52;90.39
12101;BME280;6113;42.678;23.334;2022-09-02T05:36:05;94559.88;;;22.53;90.83
12101;BME280;6113;42.678;23.334;2022-09-02T05:38:33;94537.75;;;22.40;90.95
12101;BME280;6113;42.678;23.334;2022-09-02T05:41:05;94576.50;;;22.53;90.74
12101;BME280;6113;42.678;23.334;2022-09-02T05:43:34;94557.09;;;22.53;90.09
12101;BME280;6113;42.678;23.334;2022-09-02T05:46:03;94554.31;;;22.53;90.23
12101;BME280;6113;42.678;23.334;2022-09-02T05:48:31;94551.53;;;22.53;90.94
12101;BME280;6113;42.678;23.334;2022-09-02T05:51:15;94535.34;;;22.44;91.45
12101;BME280;6113;42.678;23.334;2022-09-02T05:53:42;94548.03;;;22.53;91.35
12101;BME280;6113;42.678;23.334;2022-09-02T05:56:10;94549.31;;;22.52;93.00
12101;BME280;6113;42.678;23.334;2022-09-02T05:58:37;94551.19;;;22.57;92.15
12101;BME280;6113;42.678;23.334;2022-09-02T06:01:07;94553.25;;;22.56;91.54
12101;BME280;6113;42.678;23.334;2022-09-02T06:03:34;94546.41;;;22.57;91.65
12101;BME280;6113;42.678;23.334;2022-09-02T06:06:01;94536.00;;;22.50;92.78
12101;BME280;6113;42.678;23.334;2022-09-02T06:08:28;94542.47;;;22.53;94.21
12101;BME280;6113;42.678;23.334;2022-09-02T06:10:55;94519.38;;;22.37;94.74
12101;BME280;6113;42.678;23.334;2022-09-02T06:13:23;94564.75;;;22.60;93.43
12101;BME280;6113;42.678;23.334;2022-09-02T06:15:50;94556.63;;;22.62;93.36
12101;BME280;6113;42.678;23.334;2022-09-02T06:18:17;94551.06;;;22.62;93.02
12101;BME280;6113;42.678;23.334;2022-09-02T06:20:45;94552.34;;;22.61;92.06
12101;BME280;6113;42.678;23.334;2022-09-02T06:23:13;94551.63;;;22.61;92.42
12101;BME280;6113;42.678;23.334;2022-09-02T06:25:42;94554.78;;;22.65;92.63
12101;BME280;6113;42.678;23.334;2022-09-02T06:28:10;94560.88;;;22.63;92.93
12101;BME280;6113;42.678;23.334;2022-09-02T06:30:40;94547.09;;;22.50;92.93
12101;BME280;6113;42.678;23.334;2022-09-02T06:33:07;94563.66;;;22.63;92.73
12101;BME280;6113;42.678;23.334;2022-09-02T06:35:38;94562.38;;;22.64;93.24
12101;BME280;6113;42.678;23.334;2022-09-02T06:38:06;94569.44;;;22.65;94.51
12101;BME280;6113;42.678;23.334;2022-09-02T06:40:33;94555.25;;;22.56;94.12
12101;BME280;6113;42.678;23.334;2022-09-02T06:43:00;94565.88;;;22.65;93.33
12101;BME280;6113;42.678;23.334;2022-09-02T06:45:27;94564.00;;;22.60;93.73
12101;BME280;6113;42.678;23.334;2022-09-02T06:47:57;94577.94;;;22.67;93.28
12101;BME280;6113;42.678;23.334;2022-09-02T06:50:23;94576.66;;;22.68;93.48
12101;BME280;6113;42.678;23.334;2022-09-02T06:52:50;94557.50;;;22.57;93.35
12101;BME280;6113;42.678;23.334;2022-09-02T06:55:17;94580.91;;;22.69;94.20
12101;BME280;6113;42.678;23.334;2022-09-02T06:57:44;94587.97;;;22.70;94.81
12101;BME280;6113;42.678;23.334;2022-09-02T07:00:12;94582.41;;;22.70;95.28
12101;BME280;6113;42.678;23.334;2022-09-02T07:02:38;94584.47;;;22.70;94.10
12101;BME280;6113;42.678;23.334;2022-09-02T07:05:08;94577.41;;;22.69;93.56
12101;BME280;6113;42.678;23.334;2022-09-02T07:07:34;94589.25;;;22.69;93.33
12101;BME280;6113;42.678;23.334;2022-09-02T07:10:04;94572.53;;;22.62;92.51
12101;BME280;6113;42.678;23.334;2022-09-02T07:12:33;94590.06;;;22.77;91.00
12101;BME280;6113;42.678;23.334;2022-09-02T07:15:00;94593.59;;;22.78;91.40
12101;BME280;6113;42.678;23.334;2022-09-02T07:17:26;94594.13;;;22.76;92.24
12101;BME280;6113;42.678;23.334;2022-09-02T07:19:54;94574.97;;;22.65;92.41
12101;BME280;6113;42.678;23.334;2022-09-02T07:22:25;94575.16;;;22.67;93.77
12101;BME280;6113;42.678;23.334;2022-09-02T07:24:51;94595.81;;;22.79;93.38
12101;BME280;6113;42.678;23.334;2022-09-02T07:27:18;94600.69;;;22.86;93.76
12101;BME280;6113;42.678;23.334;2022-09-02T07:29:45;94590.53;;;22.89;93.20
12101;BME280;6113;42.678;23.334;2022-09-02T07:32:13;94595.53;;;22.90;93.00
12101;BME280;6113;42.678;23.334;2022-09-02T07:34:40;94602.78;;;22.93;92.89
12101;BME280;6113;42.678;23.334;2022-09-02T07:37:08;94601.28;;;22.92;93.00
12101;BME280;6113;42.678;23.334;2022-09-02T07:39:36;94601.72;;;22.96;93.07
12101;BME280;6113;42.678;23.334;2022-09-02T07:42:03;94593.16;;;22.94;93.33
12101;BME280;6113;42.678;23.334;2022-09-02T07:44:30;94602.66;;;22.99;93.79
12101;BME280;6113;42.678;23.334;2022-09-02T07:46:57;94601.06;;;23.03;93.79
12101;BME280;6113;42.678;23.334;2022-09-02T07:49:24;94601.44;;;23.07;94.09
12101;BME280;6113;42.678;23.334;2022-09-02T07:51:52;94589.25;;;23.10;92.89
12101;BME280;6113;42.678;23.334;2022-09-02T07:54:21;94597.19;;;23.06;90.87
12101;BME280;6113;42.678;23.334;2022-09-02T07:56:50;94601.16;;;23.18;89.65
12101;BME280;6113;42.678;23.334;2022-09-02T07:59:18;94588.19;;;23.13;89.31
12101;BME280;6113;42.678;23.334;2022-09-02T08:01:46;94608.59;;;23.23;88.77
12101;BME280;6113;42.678;23.334;2022-09-02T08:04:14;94513.28;;;22.59;88.59
12101;BME280;6113;42.678;23.334;2022-09-02T08:06:43;94590.75;;;23.11;88.91
12101;BME280;6113;42.678;23.334;2022-09-02T08:09:10;94593.53;;;23.11;89.01
12101;BME280;6113;42.678;23.334;2022-09-02T08:11:37;94611.59;;;23.25;89.69
12101;BME280;6113;42.678;23.334;2022-09-02T08:14:06;94618.09;;;23.27;89.61
12101;BME280;6113;42.678;23.334;2022-09-02T08:16:33;94616.41;;;23.24;89.42
12101;BME280;6113;42.678;23.334;2022-09-02T08:19:01;94627.19;;;23.28;88.83
12101;BME280;6113;42.678;23.334;2022-09-02T08:21:27;94616.06;;;23.28;88.72
12101;BME280;6113;42.678;23.334;2022-09-02T08:23:55;94614.75;;;23.29;88.03
12101;BME280;6113;42.678;23.334;2022-09-02T08:26:23;94598.59;;;23.20;88.31
12101;BME280;6113;42.678;23.334;2022-09-02T08:28:52;94603.06;;;23.23;88.16
12101;BME280;6113;42.678;23.334;2022-09-02T08:31:21;94622.00;;;23.32;87.70
12101;BME280;6113;42.678;23.334;2022-09-02T08:33:48;94615.31;;;23.27;87.43
12101;BME280;6113;42.678;23.334;2022-09-02T08:36:15;94616.47;;;23.32;86.53
12101;BME280;6113;42.678;23.334;2022-09-02T08:38:42;94595.28;;;23.21;85.69
12101;BME280;6113;42.678;23.334;2022-09-02T08:41:16;94614.97;;;23.31;85.93
12101;BME280;6113;42.678;23.334;2022-09-02T08:43:45;94609.41;;;23.31;84.99
12101;BME280;6113;42.678;23.334;2022-09-02T08:46:15;94615.72;;;23.31;84.33
12101;BME280;6113;42.678;23.334;2022-09-02T08:48:48;94610.69;;;23.30;83.63
12101;BME280;6113;42.678;23.334;2022-09-02T08:51:20;94614.03;;;23.28;83.47
12101;BME280;6113;42.678;23.334;2022-09-02T08:53:55;94606.63;;;23.31;84.16
12101;BME280;6113;42.678;23.334;2022-09-02T08:56:24;94586.38;;;23.23;84.38
12101;BME280;6113;42.678;23.334;2022-09-02T08:58:52;94589.75;;;23.29;84.16
12101;BME280;6113;42.678;23.334;2022-09-02T09:01:26;94593.16;;;23.35;84.10
12101;BME280;6113;42.678;23.334;2022-09-02T09:04:11;94576.03;;;23.23;83.76
12101;BME280;6113;42.678;23.334;2022-09-02T09:06:59;94598.75;;;23.42;83.29
12101;BME280;6113;42.678;23.334;2022-09-02T09:09:38;94594.31;;;23.47;82.24
12101;BME280;6113;42.678;23.334;2022-09-02T09:12:14;94599.53;;;23.50;81.84
12101;BME280;6113;42.678;23.334;2022-09-02T09:14:47;94588.06;;;23.54;82.16
12101;BME280;6113;42.678;23.334;2022-09-02T09:17:23;94588.25;;;23.56;82.28
12101;BME280;6113;42.678;23.334;2022-09-02T09:19:55;94592.91;;;23.61;82.33
12101;BME280;6113;42.678;23.334;2022-09-02T09:22:28;94586.28;;;23.64;80.80
12101;BME280;6113;42.678;23.334;2022-09-02T09:24:57;94580.72;;;23.64;80.43
12101;BME280;6113;42.678;23.334;2022-09-02T09:27:24;94594.13;;;23.73;80.76
12101;BME280;6113;42.678;23.334;2022-09-02T09:29:52;94582.66;;;23.76;80.72
12101;BME280;6113;42.678;23.334;2022-09-02T09:32:24;94567.84;;;23.74;80.46
12101;BME280;6113;42.678;23.334;2022-09-02T09:34:57;94580.16;;;23.93;80.28
12101;BME280;6113;42.678;23.334;2022-09-02T09:37:34;94579.81;;;24.04;79.29
12101;BME280;6113;42.678;23.334;2022-09-02T09:40:22;94580.41;;;24.17;79.07
12101;BME280;6113;42.678;23.334;2022-09-02T09:42:53;94570.63;;;24.24;78.49
12101;BME280;6113;42.678;23.334;2022-09-02T09:45:27;94567.47;;;24.27;78.41
12101;BME280;6113;42.678;23.334;2022-09-02T09:48:14;94565.50;;;24.43;78.29
12101;BME280;6113;42.678;23.334;2022-09-02T09:50:44;94581.47;;;24.57;77.38
12101;BME280;6113;42.678;23.334;2022-09-02T09:53:17;94566.63;;;24.62;76.84
12101;BME280;6113;42.678;23.334;2022-09-02T09:55:52;94581.16;;;24.68;75.33
12101;BME280;6113;42.678;23.334;2022-09-02T09:58:20;94578.50;;;24.55;75.03
12101;BME280;6113;42.678;23.334;2022-09-02T10:00:50;94584.81;;;24.48;75.73
12101;BME280;6113;42.678;23.334;2022-09-02T10:03:26;94587.41;;;24.54;75.32
12101;BME280;6113;42.678;23.334;2022-09-02T10:05:59;94582.78;;;24.56;75.05
12101;BME280;6113;42.678;23.334;2022-09-02T10:08:50;94585.19;;;24.60;74.51
12101;BME280;6113;42.678;23.334;2022-09-02T10:11:21;94581.47;;;24.57;74.48
12101;BME280;6113;42.678;23.334;2022-09-02T10:13:48;94564.41;;;24.53;74.03
12101;BME280;6113;42.678;23.334;2022-09-02T10:16:25;94573.88;;;24.65;73.71
12101;BME280;6113;42.678;23.334;2022-09-02T10:18:57;94575.94;;;24.65;73.95
12101;BME280;6113;42.678;23.334;2022-09-02T10:21:42;94577.94;;;24.49;73.71
12101;BME280;6113;42.678;23.334;2022-09-02T10:24:20;94589.34;;;24.16;75.60
12101;BME280;6113;42.678;23.334;2022-09-02T10:26:53;94556.88;;;24.18;75.55
12101;BME280;6113;42.678;23.334;2022-09-02T10:29:35;94579.63;;;24.52;75.42
12101;BME280;6113;42.678;23.334;2022-09-02T10:32:24;94565.56;;;24.72;74.47
12101;BME280;6113;42.678;23.334;2022-09-02T10:35:01;94577.06;;;24.84;75.02
12101;BME280;6113;42.678;23.334;2022-09-02T10:37:37;94475.06;;;24.29;74.52
12101;BME280;6113;42.678;23.334;2022-09-02T10:40:09;94547.53;;;24.81;72.93
12101;BME280;6113;42.678;23.334;2022-09-02T10:42:47;94574.50;;;25.01;72.61
12101;BME280;6113;42.678;23.334;2022-09-02T10:45:23;94570.03;;;24.98;72.75
12101;BME280;6113;42.678;23.334;2022-09-02T10:48:01;94572.25;;;24.99;72.77
12101;BME280;6113;42.678;23.334;2022-09-02T10:50:37;94560.38;;;24.99;72.93
12101;BME280;6113;42.678;23.334;2022-09-02T10:53:20;94577.09;;;25.14;72.83
12101;BME280;6113;42.678;23.334;2022-09-02T10:55:55;94570.78;;;25.21;72.87
12101;BME280;6113;42.678;23.334;2022-09-02T10:58:33;94576.16;;;25.34;73.42
12101;BME280;6113;42.678;23.334;2022-09-02T11:01:06;94578.19;;;25.41;73.49
12101;BME280;6113;42.678;23.334;2022-09-02T11:03:38;94568.13;;;25.45;71.90
12101;BME280;6113;42.678;23.334;2022-09-02T11:06:10;94566.06;;;25.53;71.76
12101;BME280;6113;42.678;23.334;2022-09-02T11:08:42;94551.94;;;25.66;71.32
12101;BME280;6113;42.678;23.334;2022-09-02T11:11:14;94548.22;;;25.78;71.28
12101;BME280;6113;42.678;23.334;2022-09-02T11:13:56;94559.56;;;26.20;70.94
12101;BME280;6113;42.678;23.334;2022-09-02T11:16:28;94552.94;;;26.47;68.26
12101;BME280;6113;42.678;23.334;2022-09-02T11:19:00;94534.56;;;26.29;68.43
12101;BME280;6113;42.678;23.334;2022-09-02T11:21:38;94528.50;;;26.16;68.17
12101;BME280;6113;42.678;23.334;2022-09-02T11:24:10;94551.09;;;26.42;68.33
12101;BME280;6113;42.678;23.334;2022-09-02T11:26:43;94538.75;;;26.77;66.62
12101;BME280;6113;42.678;23.334;2022-09-02T11:29:14;94540.31;;;26.95;65.63
12101;BME280;6113;42.678;23.334;2022-09-02T11:31:45;94511.63;;;26.70;65.63
12101;BME280;6113;42.678;23.334;2022-09-02T11:34:20;94539.63;;;26.87;65.81
12101;BME280;6113;42.678;23.334;2022-09-02T11:36:51;94542.06;;;26.83;65.66
12101;BME280;6113;42.678;23.334;2022-09-02T11:39:27;94524.09;;;26.69;65.77
12101;BME280;6113;42.678;23.334;2022-09-02T11:42:13;94521.09;;;26.74;66.19
12101;BME280;6113;42.678;23.334;2022-09-02T11:47:43;94515.91;;;26.71;65.40
12101;BME280;6113;42.678;23.334;2022-09-02T11:50:35;94508.66;;;26.68;66.12
12101;BME280;6113;42.678;23.334;2022-09-02T11:53:17;94517.75;;;26.44;66.55
12101;BME280;6113;42.678;23.334;2022-09-02T11:55:51;94514.22;;;26.43;66.93
12101;BME280;6113;42.678;23.334;2022-09-02T11:58:32;94509.91;;;26.18;65.97
12101;BME280;6113;42.678;23.334;2022-09-02T12:01:15;94515.19;;;25.99;66.57
12101;BME280;6113;42.678;23.334;2022-09-02T12:03:46;94511.13;;;25.93;67.14
12101;BME280;6113;42.678;23.334;2022-09-02T12:06:16;94515.53;;;26.03;67.58
12101;BME280;6113;42.678;23.334;2022-09-02T12:11:40;94476.06;;;25.75;66.84
12101;BME280;6113;42.678;23.334;2022-09-02T12:14:08;94529.06;;;26.14;66.47
12101;BME280;6113;42.678;23.334;2022-09-02T12:16:43;94520.88;;;26.16;66.34
12101;BME280;6113;42.678;23.334;2022-09-02T12:19:26;94518.28;;;26.18;66.14
12101;BME280;6113;42.678;23.334;2022-09-02T12:22:25;94515.63;;;26.20;65.99
12101;BME280;6113;42.678;23.334;2022-09-02T12:24:54;94510.22;;;26.22;65.83
12101;BME280;6113;42.678;23.334;2022-09-02T12:27:27;94506.13;;;26.23;65.82
12101;BME280;6113;42.678;23.334;2022-09-02T12:29:55;94515.81;;;26.22;66.42
12101;BME280;6113;42.678;23.334;2022-09-02T12:35:50;94499.19;;;26.39;67.14
12101;BME280;6113;42.678;23.334;2022-09-02T12:38:31;94467.38;;;26.27;67.23
12101;BME280;6113;42.678;23.334;2022-09-02T12:41:18;94486.50;;;26.38;67.51
12101;BME280;6113;42.678;23.334;2022-09-02T12:46:47;94467.38;;;26.27;67.24
12101;BME280;6113;42.678;23.334;2022-09-02T12:49:27;94488.72;;;26.08;68.52
12101;BME280;6113;42.678;23.334;2022-09-02T12:51:56;94489.47;;;26.08;67.49
12101;BME280;6113;42.678;23.334;2022-09-02T12:54:34;94480.59;;;26.02;67.50
12101;BME280;6113;42.678;23.334;2022-09-02T12:57:02;94464.44;;;25.93;67.89
12101;BME280;6113;42.678;23.334;2022-09-02T12:59:32;94467.44;;;25.88;68.84
12101;BME280;6113;42.678;23.334;2022-09-02T13:05:00;94476.03;;;25.82;69.56
12101;BME280;6113;42.678;23.334;2022-09-02T13:08:16;94469.53;;;25.80;70.00
12101;BME280;6113;42.678;23.334;2022-09-02T13:11:13;94471.78;;;25.66;69.34
12101;BME280;6113;42.678;23.334;2022-09-02T13:14:00;94467.88;;;25.69;69.87
12101;BME280;6113;42.678;23.334;2022-09-02T13:16:38;94475.09;;;25.72;70.25
12101;BME280;6113;42.678;23.334;2022-09-02T13:19:26;94471.00;;;25.73;70.40
12101;BME280;6113;42.678;23.334;2022-09-02T13:22:26;94477.53;;;25.68;71.04
12101;BME280;6113;42.678;23.334;2022-09-02T13:28:26;94470.13;;;25.63;71.44
12101;BME280;6113;42.678;23.334;2022-09-02T13:31:18;94472.75;;;25.61;71.19
12101;BME280;6113;42.678;23.334;2022-09-02T13:33:55;94472.56;;;25.59;71.43
12101;BME280;6113;42.678;23.334;2022-09-02T13:36:26;94479.44;;;25.58;72.77